createdAt,value
2019-02-20T00:00:59.326Z,0.00
2019-02-20T00:01:59.294Z,0.00
2019-02-20T00:02:59.290Z,0.00
2019-02-20T00:03:59.279Z,0.00
2019-02-20T00:04:59.281Z,0.00
2019-02-20T00:05:59.247Z,0.00
2019-02-20T00:06:59.243Z,0.00
2019-02-20T00:07:59.229Z,0.00
2019-02-20T00:08:59.246Z,0.00
2019-02-20T00:09:59.237Z,0.00
2019-02-20T00:10:59.204Z,0.00
2019-02-20T00:11:59.252Z,0.00
2019-02-20T00:12:59.176Z,0.00
2019-02-20T00:13:59.166Z,0.00
2019-02-20T00:14:59.179Z,0.00
2019-02-20T00:15:59.157Z,0.00
2019-02-20T00:16:59.122Z,0.00
2019-02-20T00:17:59.113Z,0.00
2019-02-20T00:18:59.101Z,0.00
2019-02-20T00:19:59.093Z,0.00
2019-02-20T00:20:59.119Z,0.00
2019-02-20T00:21:59.106Z,0.00
2019-02-20T00:22:59.055Z,0.00
2019-02-20T00:23:59.048Z,0.00
2019-02-20T00:24:59.045Z,0.00
2019-02-20T00:25:59.111Z,0.00
2019-02-20T00:26:59.048Z,0.00
2019-02-20T00:27:59.005Z,0.00
2019-02-20T00:28:59.016Z,0.00
2019-02-20T00:29:58.987Z,0.00
2019-02-20T00:30:58.976Z,0.00
2019-02-20T00:31:58.975Z,0.00
2019-02-20T00:32:58.951Z,0.00
2019-02-20T00:33:58.934Z,0.00
2019-02-20T00:34:58.967Z,0.00
2019-02-20T00:35:58.923Z,0.00
2019-02-20T00:36:58.930Z,0.00
2019-02-20T00:37:58.896Z,0.00
2019-02-20T00:38:58.881Z,0.00
2019-02-20T00:39:58.876Z,0.00
2019-02-20T00:40:58.906Z,0.00
2019-02-20T00:41:58.854Z,0.00
2019-02-20T00:42:58.857Z,0.00
2019-02-20T00:43:58.849Z,0.00
2019-02-20T00:44:58.816Z,0.00
2019-02-20T00:45:58.826Z,0.00
2019-02-20T00:46:58.804Z,0.00
2019-02-20T00:47:58.804Z,0.00
2019-02-20T00:48:58.770Z,0.00
2019-02-20T00:49:58.762Z,0.00
2019-02-20T00:50:59.269Z,0.00
2019-02-20T00:51:58.738Z,0.00
2019-02-20T00:52:58.728Z,0.00
2019-02-20T00:53:58.720Z,0.00
2019-02-20T00:54:58.708Z,0.00
2019-02-20T00:55:58.691Z,0.00
2019-02-20T00:56:58.695Z,0.00
2019-02-20T00:57:58.672Z,0.00
2019-02-20T00:58:58.679Z,0.00
2019-02-20T00:59:58.644Z,0.00
2019-02-20T01:00:58.641Z,0.00
2019-02-20T01:01:58.635Z,0.00
2019-02-20T01:02:58.637Z,0.00
2019-02-20T01:03:58.611Z,0.00
2019-02-20T01:04:58.604Z,0.00
2019-02-20T01:05:58.590Z,0.00
2019-02-20T01:06:58.565Z,0.00
2019-02-20T01:07:58.556Z,0.00
2019-02-20T01:08:59.370Z,0.00
2019-02-20T01:09:58.578Z,0.00
2019-02-20T01:10:58.520Z,0.00
2019-02-20T01:11:58.509Z,0.00
2019-02-20T01:12:58.510Z,0.00
2019-02-20T01:13:58.487Z,0.00
2019-02-20T01:14:58.492Z,0.00
2019-02-20T01:15:58.490Z,0.00
2019-02-20T01:16:58.488Z,0.00
2019-02-20T01:17:58.450Z,0.00
2019-02-20T01:18:58.442Z,0.00
2019-02-20T01:19:58.426Z,0.00
2019-02-20T01:20:58.431Z,0.00
2019-02-20T01:21:58.400Z,0.00
2019-02-20T01:23:00.176Z,0.00
2019-02-20T01:23:58.380Z,0.00
2019-02-20T01:24:58.367Z,0.00
2019-02-20T01:25:58.382Z,0.00
2019-02-20T01:26:58.348Z,0.00
2019-02-20T01:27:58.324Z,0.00
2019-02-20T01:28:58.326Z,0.00
2019-02-20T01:29:58.336Z,0.00
2019-02-20T01:30:58.287Z,0.00
2019-02-20T01:31:58.301Z,0.00
2019-02-20T01:32:58.272Z,0.00
2019-02-20T01:33:58.280Z,0.00
2019-02-20T01:34:58.258Z,0.00
2019-02-20T01:35:58.264Z,0.00
2019-02-20T01:36:58.242Z,0.00
2019-02-20T01:37:58.225Z,0.00
2019-02-20T01:38:58.208Z,0.00
2019-02-20T01:39:58.200Z,0.00
2019-02-20T01:40:58.220Z,0.00
2019-02-20T01:41:58.285Z,0.00
2019-02-20T01:42:58.157Z,0.00
2019-02-20T01:43:58.149Z,0.00
2019-02-20T01:44:58.138Z,0.00
2019-02-20T01:45:58.126Z,0.00
2019-02-20T01:46:58.110Z,0.00
2019-02-20T01:47:58.141Z,0.00
2019-02-20T01:48:58.099Z,0.00
2019-02-20T01:49:58.081Z,0.00
2019-02-20T01:50:58.082Z,0.00
2019-02-20T01:51:58.064Z,0.00
2019-02-20T01:52:58.077Z,0.00
2019-02-20T01:53:58.041Z,0.00
2019-02-20T01:54:58.048Z,0.00
2019-02-20T01:55:58.019Z,0.00
2019-02-20T01:56:58.000Z,0.00
2019-02-20T01:57:57.993Z,0.00
2019-02-20T01:58:57.992Z,0.00
2019-02-20T01:59:57.963Z,0.00
2019-02-20T02:00:57.991Z,0.00
2019-02-20T02:01:57.950Z,0.00
2019-02-20T02:02:57.934Z,0.00
2019-02-20T02:03:57.977Z,0.00
2019-02-20T02:04:57.912Z,0.00
2019-02-20T02:05:57.902Z,0.00
2019-02-20T02:06:58.828Z,0.00
2019-02-20T02:07:57.879Z,0.00
2019-02-20T02:08:59.644Z,0.00
2019-02-20T02:09:57.869Z,0.00
2019-02-20T02:10:57.845Z,0.00
2019-02-20T02:11:57.830Z,0.00
2019-02-20T02:12:57.839Z,0.00
2019-02-20T02:13:57.802Z,0.00
2019-02-20T02:14:57.816Z,0.00
2019-02-20T02:15:57.788Z,0.00
2019-02-20T02:16:57.783Z,0.00
2019-02-20T02:17:57.788Z,0.00
2019-02-20T02:18:57.777Z,0.00
2019-02-20T02:19:57.744Z,0.00
2019-02-20T02:20:57.749Z,0.00
2019-02-20T02:21:57.720Z,0.00
2019-02-20T02:22:57.719Z,0.00
2019-02-20T02:23:57.696Z,0.00
2019-02-20T02:24:57.716Z,0.00
2019-02-20T02:25:57.681Z,0.00
2019-02-20T02:26:57.659Z,0.00
2019-02-20T02:27:57.654Z,0.00
2019-02-20T02:28:57.641Z,0.00
2019-02-20T02:29:58.318Z,0.00
2019-02-20T02:30:57.651Z,0.00
2019-02-20T02:31:57.617Z,0.00
2019-02-20T02:32:57.590Z,0.00
2019-02-20T02:33:57.584Z,0.00
2019-02-20T02:34:57.569Z,0.00
2019-02-20T02:35:57.566Z,0.00
2019-02-20T02:36:57.851Z,0.00
2019-02-20T02:37:57.553Z,0.00
2019-02-20T02:38:57.532Z,0.00
2019-02-20T02:39:57.627Z,0.00
2019-02-20T02:40:57.504Z,0.00
2019-02-20T02:41:57.542Z,0.00
2019-02-20T02:42:57.527Z,0.00
2019-02-20T02:43:57.489Z,0.00
2019-02-20T02:44:57.462Z,0.00
2019-02-20T02:45:57.454Z,0.00
2019-02-20T02:46:57.459Z,0.00
2019-02-20T02:47:57.427Z,0.00
2019-02-20T02:48:57.527Z,0.00
2019-02-20T02:49:57.408Z,0.00
2019-02-20T02:50:57.391Z,0.00
2019-02-20T02:51:57.383Z,0.00
2019-02-20T02:52:57.415Z,0.00
2019-02-20T02:53:57.405Z,0.00
2019-02-20T02:54:57.397Z,0.00
2019-02-20T02:55:57.335Z,0.00
2019-02-20T02:56:57.331Z,0.00
2019-02-20T02:57:57.324Z,0.00
2019-02-20T02:58:57.329Z,0.00
2019-02-20T02:59:57.300Z,0.00
2019-02-20T03:00:57.317Z,0.00
2019-02-20T03:01:57.276Z,0.00
2019-02-20T03:02:57.269Z,0.00
2019-02-20T03:03:57.270Z,0.00
2019-02-20T03:04:57.253Z,0.00
2019-02-20T03:05:57.238Z,0.00
2019-02-20T03:06:57.237Z,0.00
2019-02-20T03:07:57.232Z,0.00
2019-02-20T03:08:57.301Z,0.00
2019-02-20T03:09:57.181Z,0.00
2019-02-20T03:10:57.185Z,0.00
2019-02-20T03:12:18.204Z,0.00
2019-02-20T03:12:57.151Z,0.00
2019-02-20T03:13:57.166Z,0.00
2019-02-20T03:14:57.152Z,0.00
2019-02-20T03:15:57.125Z,0.00
2019-02-20T03:16:57.111Z,0.00
2019-02-20T03:17:57.132Z,0.00
2019-02-20T03:18:57.085Z,0.00
2019-02-20T03:19:57.112Z,0.00
2019-02-20T03:20:57.067Z,0.00
2019-02-20T03:21:57.054Z,0.00
2019-02-20T03:22:57.041Z,0.00
2019-02-20T03:23:57.086Z,0.00
2019-02-20T03:24:57.022Z,0.00
2019-02-20T03:25:57.042Z,0.00
2019-02-20T03:26:56.997Z,0.00
2019-02-20T03:27:56.986Z,0.00
2019-02-20T03:28:56.979Z,0.00
2019-02-20T03:29:56.970Z,0.00
2019-02-20T03:30:56.967Z,0.00
2019-02-20T03:31:56.970Z,0.00
2019-02-20T03:32:56.934Z,0.00
2019-02-20T03:33:56.927Z,0.00
2019-02-20T03:34:56.915Z,0.00
2019-02-20T03:35:56.937Z,0.00
2019-02-20T03:36:56.893Z,0.00
2019-02-20T03:37:56.937Z,0.00
2019-02-20T03:38:56.872Z,0.00
2019-02-20T03:39:56.854Z,0.00
2019-02-20T03:40:56.849Z,0.00
2019-02-20T03:41:56.848Z,0.00
2019-02-20T03:42:56.826Z,0.00
2019-02-20T03:43:56.833Z,0.00
2019-02-20T03:44:56.838Z,0.00
2019-02-20T03:45:56.809Z,0.00
2019-02-20T03:46:56.784Z,0.00
2019-02-20T03:47:56.770Z,0.00
2019-02-20T03:48:56.759Z,0.00
2019-02-20T03:49:56.769Z,0.00
2019-02-20T03:50:56.747Z,0.00
2019-02-20T03:51:56.788Z,0.00
2019-02-20T03:52:56.778Z,0.00
2019-02-20T03:53:56.699Z,0.00
2019-02-20T03:54:56.728Z,0.00
2019-02-20T03:55:56.704Z,0.00
2019-02-20T03:56:56.670Z,0.00
2019-02-20T03:57:56.672Z,0.00
2019-02-20T03:58:56.661Z,0.00
2019-02-20T03:59:56.641Z,0.00
2019-02-20T04:00:56.620Z,0.00
2019-02-20T04:01:56.641Z,0.00
2019-02-20T04:02:56.628Z,0.00
2019-02-20T04:03:56.588Z,0.00
2019-02-20T04:04:56.584Z,0.00
2019-02-20T04:05:56.569Z,0.00
2019-02-20T04:06:56.645Z,0.00
2019-02-20T04:07:56.549Z,0.00
2019-02-20T04:08:56.555Z,0.00
2019-02-20T04:09:56.538Z,0.00
2019-02-20T04:10:56.515Z,0.00
2019-02-20T04:11:56.517Z,0.00
2019-02-20T04:12:56.529Z,0.00
2019-02-20T04:13:56.530Z,0.00
2019-02-20T04:14:56.475Z,0.00
2019-02-20T04:15:56.470Z,0.00
2019-02-20T04:16:56.455Z,0.00
2019-02-20T04:17:56.444Z,0.00
2019-02-20T04:18:56.437Z,0.00
2019-02-20T04:19:56.456Z,0.00
2019-02-20T04:20:56.431Z,0.00
2019-02-20T04:21:56.399Z,0.00
2019-02-20T04:22:56.393Z,0.00
2019-02-20T04:24:02.544Z,0.00
2019-02-20T04:24:56.379Z,0.00
2019-02-20T04:25:56.360Z,0.00
2019-02-20T04:27:17.805Z,0.00
2019-02-20T04:27:56.338Z,0.00
2019-02-20T04:28:56.319Z,0.00
2019-02-20T04:29:56.330Z,0.00
2019-02-20T04:30:56.302Z,0.00
2019-02-20T04:31:56.296Z,0.00
2019-02-20T04:32:58.338Z,0.00
2019-02-20T04:33:56.279Z,0.00
2019-02-20T04:34:56.253Z,0.00
2019-02-20T04:35:56.258Z,0.00
2019-02-20T04:36:56.228Z,0.00
2019-02-20T04:37:56.259Z,0.00
2019-02-20T04:38:56.209Z,0.00
2019-02-20T04:39:56.196Z,0.00
2019-02-20T04:40:56.213Z,0.00
2019-02-20T04:41:56.178Z,0.00
2019-02-20T04:42:58.405Z,0.00
2019-02-20T04:43:56.215Z,0.00
2019-02-20T04:44:56.136Z,0.00
2019-02-20T04:45:56.128Z,0.00
2019-02-20T04:46:56.133Z,0.00
2019-02-20T04:47:56.105Z,0.00
2019-02-20T04:48:56.099Z,0.00
2019-02-20T04:49:56.137Z,0.00
2019-02-20T04:50:56.083Z,0.00
2019-02-20T04:51:56.795Z,0.00
2019-02-20T04:52:56.065Z,0.00
2019-02-20T04:53:56.051Z,0.00
2019-02-20T04:54:56.035Z,0.00
2019-02-20T04:55:56.054Z,0.00
2019-02-20T04:56:56.038Z,0.00
2019-02-20T04:57:55.998Z,0.00
2019-02-20T04:58:55.991Z,0.00
2019-02-20T04:59:55.979Z,0.00
2019-02-20T05:00:55.968Z,0.00
2019-02-20T05:01:55.976Z,0.00
2019-02-20T05:02:55.962Z,0.00
2019-02-20T05:03:55.933Z,0.00
2019-02-20T05:04:55.926Z,0.00
2019-02-20T05:05:55.912Z,0.00
2019-02-20T05:06:55.900Z,0.00
2019-02-20T05:07:55.920Z,0.00
2019-02-20T05:08:55.887Z,0.00
2019-02-20T05:09:55.862Z,0.00
2019-02-20T05:10:55.859Z,0.00
2019-02-20T05:11:55.848Z,0.00
2019-02-20T05:12:55.858Z,0.00
2019-02-20T05:13:55.891Z,0.00
2019-02-20T05:14:55.812Z,0.00
2019-02-20T05:15:55.806Z,0.00
2019-02-20T05:16:55.790Z,0.00
2019-02-20T05:17:55.793Z,0.00
2019-02-20T05:18:55.766Z,0.00
2019-02-20T05:19:56.365Z,0.00
2019-02-20T05:20:56.307Z,0.00
2019-02-20T05:21:55.737Z,0.00
2019-02-20T05:22:55.720Z,0.00
2019-02-20T05:23:56.369Z,0.00
2019-02-20T05:24:55.795Z,0.00
2019-02-20T05:25:55.708Z,0.00
2019-02-20T05:26:55.691Z,0.00
2019-02-20T05:27:55.659Z,0.00
2019-02-20T05:28:55.680Z,0.00
2019-02-20T05:29:55.645Z,0.00
2019-02-20T05:30:55.641Z,0.00
2019-02-20T05:31:55.640Z,0.00
2019-02-20T05:32:55.615Z,0.00
2019-02-20T05:33:55.597Z,0.00
2019-02-20T05:34:55.579Z,0.00
2019-02-20T05:35:55.594Z,0.00
2019-02-20T05:36:55.564Z,0.00
2019-02-20T05:37:55.601Z,0.00
2019-02-20T05:38:55.547Z,0.00
2019-02-20T05:39:55.525Z,0.00
2019-02-20T05:40:55.551Z,0.00
2019-02-20T05:41:55.509Z,0.00
2019-02-20T05:42:55.524Z,0.00
2019-02-20T05:43:55.482Z,0.00
2019-02-20T05:44:55.478Z,0.00
2019-02-20T05:45:55.463Z,4.00
2019-02-20T05:46:55.488Z,0.00
2019-02-20T05:47:55.445Z,0.00
2019-02-20T05:48:55.451Z,4.00
2019-02-20T05:49:55.419Z,0.00
2019-02-20T05:50:55.400Z,4.00
2019-02-20T05:51:55.395Z,4.00
2019-02-20T05:52:55.412Z,4.00
2019-02-20T05:53:55.385Z,4.00
2019-02-20T05:54:55.386Z,8.00
2019-02-20T05:55:55.353Z,8.00
2019-02-20T05:56:55.340Z,8.00
2019-02-20T05:57:55.327Z,12.00
2019-02-20T05:58:55.353Z,12.00
2019-02-20T05:59:55.312Z,16.00
2019-02-20T06:00:55.331Z,20.00
2019-02-20T06:01:55.316Z,24.00
2019-02-20T06:02:55.280Z,28.00
2019-02-20T06:03:55.258Z,32.00
2019-02-20T06:04:55.297Z,36.00
2019-02-20T06:05:55.247Z,40.00
2019-02-20T06:06:55.850Z,44.00
2019-02-20T06:07:55.220Z,48.00
2019-02-20T06:08:55.207Z,56.00
2019-02-20T06:09:55.194Z,60.00
2019-02-20T06:10:55.208Z,68.00
2019-02-20T06:11:55.176Z,76.00
2019-02-20T06:12:55.193Z,80.00
2019-02-20T06:13:55.152Z,84.00
2019-02-20T06:14:55.146Z,88.00
2019-02-20T06:15:55.133Z,92.00
2019-02-20T06:16:55.157Z,96.00
2019-02-20T06:17:55.121Z,104.00
2019-02-20T06:18:55.129Z,104.00
2019-02-20T06:19:55.092Z,112.00
2019-02-20T06:20:55.073Z,120.00
2019-02-20T06:21:55.065Z,124.00
2019-02-20T06:22:55.068Z,136.00
2019-02-20T06:23:55.068Z,152.00
2019-02-20T06:24:55.045Z,160.00
2019-02-20T06:25:55.025Z,164.00
2019-02-20T06:26:55.024Z,172.00
2019-02-20T06:27:55.022Z,180.00
2019-02-20T06:28:54.998Z,192.00
2019-02-20T06:29:55.012Z,200.00
2019-02-20T06:30:54.964Z,216.00
2019-02-20T06:31:54.959Z,232.00
2019-02-20T06:32:54.944Z,256.00
2019-02-20T06:33:54.953Z,276.00
2019-02-20T06:34:54.926Z,288.00
2019-02-20T06:35:54.930Z,300.00
2019-02-20T06:36:54.901Z,316.00
2019-02-20T06:37:54.941Z,348.00
2019-02-20T06:38:54.870Z,384.00
2019-02-20T06:39:54.894Z,388.00
2019-02-20T06:40:54.862Z,388.00
2019-02-20T06:41:54.877Z,380.00
2019-02-20T06:42:54.835Z,392.00
2019-02-20T06:43:54.817Z,404.00
2019-02-20T06:44:54.806Z,424.00
2019-02-20T06:45:54.833Z,444.00
2019-02-20T06:46:54.818Z,464.00
2019-02-20T06:47:54.813Z,464.00
2019-02-20T06:48:54.759Z,464.00
2019-02-20T06:49:54.752Z,492.00
2019-02-20T06:50:54.742Z,500.00
2019-02-20T06:51:54.764Z,500.00
2019-02-20T06:52:54.726Z,516.00
2019-02-20T06:53:54.719Z,548.00
2019-02-20T06:54:54.724Z,568.00
2019-02-20T06:55:54.689Z,584.00
2019-02-20T06:56:54.679Z,584.00
2019-02-20T06:57:54.694Z,600.00
2019-02-20T06:58:55.293Z,624.00
2019-02-20T06:59:54.640Z,644.00
2019-02-20T07:00:54.822Z,664.00
2019-02-20T07:01:54.623Z,672.00
2019-02-20T07:02:54.666Z,700.00
2019-02-20T07:03:54.624Z,732.00
2019-02-20T07:04:54.583Z,752.00
2019-02-20T07:05:54.583Z,784.00
2019-02-20T07:06:54.592Z,816.00
2019-02-20T07:07:54.551Z,860.00
2019-02-20T07:08:54.572Z,884.00
2019-02-20T07:09:54.556Z,872.00
2019-02-20T07:10:54.527Z,860.00
2019-02-20T07:11:54.517Z,876.00
2019-02-20T07:12:54.543Z,904.00
2019-02-20T07:13:54.486Z,920.00
2019-02-20T07:14:54.516Z,908.00
2019-02-20T07:15:54.468Z,908.00
2019-02-20T07:16:55.463Z,896.00
2019-02-20T07:17:54.449Z,872.00
2019-02-20T07:18:54.438Z,896.00
2019-02-20T07:19:54.461Z,900.00
2019-02-20T07:20:54.432Z,864.00
2019-02-20T07:21:54.396Z,872.00
2019-02-20T07:22:54.378Z,912.00
2019-02-20T07:23:54.376Z,920.00
2019-02-20T07:25:02.840Z,920.00
2019-02-20T07:25:54.396Z,984.00
2019-02-20T07:26:54.366Z,1012.00
2019-02-20T07:27:54.405Z,1016.00
2019-02-20T07:28:54.320Z,1008.00
2019-02-20T07:29:54.311Z,1028.00
2019-02-20T07:30:54.314Z,1020.00
2019-02-20T07:31:54.305Z,1016.00
2019-02-20T07:32:54.296Z,1036.00
2019-02-20T07:33:54.263Z,1080.00
2019-02-20T07:34:54.261Z,1096.00
2019-02-20T07:35:54.238Z,1112.00
2019-02-20T07:36:54.230Z,1128.00
2019-02-20T07:37:54.275Z,1156.00
2019-02-20T07:38:54.216Z,1132.00
2019-02-20T07:39:54.200Z,1092.00
2019-02-20T07:40:54.191Z,1120.00
2019-02-20T07:41:54.264Z,1172.00
2019-02-20T07:42:54.163Z,1244.00
2019-02-20T07:43:54.214Z,1272.00
2019-02-20T07:44:54.775Z,1336.00
2019-02-20T07:45:54.127Z,1412.00
2019-02-20T07:46:54.118Z,1400.00
2019-02-20T07:47:54.105Z,1280.00
2019-02-20T07:48:55.328Z,1192.00
2019-02-20T07:49:54.110Z,1212.00
2019-02-20T07:50:54.753Z,1232.00
2019-02-20T07:51:54.060Z,1272.00
2019-02-20T07:52:54.052Z,1392.00
2019-02-20T07:53:54.063Z,1552.00
2019-02-20T07:54:54.024Z,1636.00
2019-02-20T07:55:54.050Z,1664.00
2019-02-20T07:56:54.000Z,1652.00
2019-02-20T07:57:54.003Z,1724.00
2019-02-20T07:58:53.987Z,1872.00
2019-02-20T07:59:54.020Z,1972.00
2019-02-20T08:00:53.983Z,1996.00
2019-02-20T08:01:53.962Z,2012.00
2019-02-20T08:02:53.936Z,2080.00
2019-02-20T08:03:53.921Z,2120.00
2019-02-20T08:04:53.916Z,2144.00
2019-02-20T08:05:53.939Z,2212.00
2019-02-20T08:06:53.898Z,2240.00
2019-02-20T08:07:53.911Z,2332.00
2019-02-20T08:08:53.871Z,2452.00
2019-02-20T08:09:53.862Z,2688.00
2019-02-20T08:10:53.854Z,2680.00
2019-02-20T08:11:53.879Z,2656.00
2019-02-20T08:12:53.824Z,2684.00
2019-02-20T08:13:53.826Z,2684.00
2019-02-20T08:14:53.810Z,2664.00
2019-02-20T08:15:53.795Z,2796.00
2019-02-20T08:16:53.790Z,2952.00
2019-02-20T08:17:53.819Z,3012.00
2019-02-20T08:18:53.791Z,3028.00
2019-02-20T08:19:53.745Z,3052.00
2019-02-20T08:20:53.734Z,3092.00
2019-02-20T08:21:53.721Z,3044.00
2019-02-20T08:22:53.716Z,2980.00
2019-02-20T08:23:53.740Z,2984.00
2019-02-20T08:24:53.712Z,3016.00
2019-02-20T08:25:53.685Z,3012.00
2019-02-20T08:26:53.673Z,3076.00
2019-02-20T08:27:53.666Z,3108.00
2019-02-20T08:28:53.657Z,3220.00
2019-02-20T08:29:53.626Z,3284.00
2019-02-20T08:30:53.666Z,3316.00
2019-02-20T08:31:53.982Z,3472.00
2019-02-20T08:32:53.600Z,3592.00
2019-02-20T08:33:53.589Z,3684.00
2019-02-20T08:34:53.585Z,3620.00
2019-02-20T08:35:53.596Z,3508.00
2019-02-20T08:36:53.571Z,3436.00
2019-02-20T08:37:53.544Z,3352.00
2019-02-20T08:38:53.538Z,3304.00
2019-02-20T08:39:53.519Z,3204.00
2019-02-20T08:40:53.516Z,3004.00
2019-02-20T08:41:53.520Z,2808.00
2019-02-20T08:42:53.822Z,2772.00
2019-02-20T08:43:53.487Z,2784.00
2019-02-20T08:44:53.457Z,2804.00
2019-02-20T08:45:53.454Z,2832.00
2019-02-20T08:46:53.458Z,2908.00
2019-02-20T08:47:53.433Z,3008.00
2019-02-20T08:48:53.448Z,3084.00
2019-02-20T08:49:54.422Z,3192.00
2019-02-20T08:50:53.397Z,3380.00
2019-02-20T08:51:53.390Z,3524.00
2019-02-20T08:52:53.375Z,3620.00
2019-02-20T08:53:53.364Z,3660.00
2019-02-20T08:54:53.387Z,3816.00
2019-02-20T08:55:53.383Z,3864.00
2019-02-20T08:56:53.334Z,3820.00
2019-02-20T08:57:53.321Z,3700.00
2019-02-20T08:58:53.321Z,3620.00
2019-02-20T08:59:53.293Z,3532.00
2019-02-20T09:00:53.320Z,3404.00
2019-02-20T09:01:53.302Z,3292.00
2019-02-20T09:02:53.277Z,3200.00
2019-02-20T09:03:53.270Z,3132.00
2019-02-20T09:04:54.804Z,3052.00
2019-02-20T09:05:53.234Z,3036.00
2019-02-20T09:06:53.259Z,3068.00
2019-02-20T09:07:53.242Z,3072.00
2019-02-20T09:08:53.205Z,3104.00
2019-02-20T09:09:53.190Z,3084.00
2019-02-20T09:10:53.174Z,3048.00
2019-02-20T09:11:53.160Z,3008.00
2019-02-20T09:12:53.173Z,3080.00
2019-02-20T09:13:53.188Z,3280.00
2019-02-20T09:14:53.138Z,3352.00
2019-02-20T09:15:53.128Z,3428.00
2019-02-20T09:16:53.109Z,3416.00
2019-02-20T09:17:53.125Z,3584.00
2019-02-20T09:18:53.097Z,3656.00
2019-02-20T09:19:53.109Z,3580.00
2019-02-20T09:20:53.062Z,3548.00
2019-02-20T09:21:53.054Z,3584.00
2019-02-20T09:22:53.047Z,3636.00
2019-02-20T09:23:53.062Z,3544.00
2019-02-20T09:24:53.042Z,3364.00
2019-02-20T09:25:53.026Z,3240.00
2019-02-20T09:26:52.996Z,3144.00
2019-02-20T09:27:52.993Z,3068.00
2019-02-20T09:28:52.975Z,2972.00
2019-02-20T09:29:53.008Z,3056.00
2019-02-20T09:30:52.963Z,3136.00
2019-02-20T09:31:52.940Z,3284.00
2019-02-20T09:32:52.941Z,3472.00
2019-02-20T09:33:52.915Z,3620.00
2019-02-20T09:34:52.916Z,3692.00
2019-02-20T09:35:52.947Z,3756.00
2019-02-20T09:36:52.876Z,3768.00
2019-02-20T09:37:52.874Z,3748.00
2019-02-20T09:38:52.873Z,3756.00
2019-02-20T09:39:52.853Z,3760.00
2019-02-20T09:40:52.853Z,3812.00
2019-02-20T09:41:52.886Z,3808.00
2019-02-20T09:42:52.813Z,3812.00
2019-02-20T09:43:52.843Z,3796.00
2019-02-20T09:44:52.796Z,3712.00
2019-02-20T09:45:52.781Z,3632.00
2019-02-20T09:46:52.772Z,3540.00
2019-02-20T09:47:52.808Z,3260.00
2019-02-20T09:48:52.745Z,3136.00
2019-02-20T09:49:52.734Z,3232.00
2019-02-20T09:50:52.766Z,3296.00
2019-02-20T09:51:52.719Z,3340.00
2019-02-20T09:52:53.019Z,3368.00
2019-02-20T09:53:52.758Z,3352.00
2019-02-20T09:54:52.679Z,3272.00
2019-02-20T09:55:52.678Z,3264.00
2019-02-20T09:56:52.661Z,3276.00
2019-02-20T09:57:52.649Z,3340.00
2019-02-20T09:58:52.667Z,3404.00
2019-02-20T09:59:52.652Z,3612.00
2019-02-20T10:00:52.654Z,3744.00
2019-02-20T10:01:52.607Z,3716.00
2019-02-20T10:02:52.594Z,3696.00
2019-02-20T10:03:52.579Z,3572.00
2019-02-20T10:04:52.595Z,3580.00
2019-02-20T10:05:52.583Z,3396.00
2019-02-20T10:06:52.551Z,3272.00
2019-02-20T10:07:52.532Z,3192.00
2019-02-20T10:08:52.534Z,3188.00
2019-02-20T10:09:52.520Z,3232.00
2019-02-20T10:10:52.534Z,3236.00
2019-02-20T10:11:52.541Z,3220.00
2019-02-20T10:12:52.485Z,3156.00
2019-02-20T10:13:52.469Z,3112.00
2019-02-20T10:14:52.478Z,3092.00
2019-02-20T10:15:52.450Z,3092.00
2019-02-20T10:16:52.473Z,3088.00
2019-02-20T10:17:52.456Z,3128.00
2019-02-20T10:18:52.418Z,3360.00
2019-02-20T10:19:52.398Z,3656.00
2019-02-20T10:20:52.396Z,3720.00
2019-02-20T10:21:52.383Z,3416.00
2019-02-20T10:22:52.392Z,3364.00
2019-02-20T10:23:52.386Z,3424.00
2019-02-20T10:24:53.290Z,3460.00
2019-02-20T10:26:00.597Z,3540.00
2019-02-20T10:27:00.431Z,3580.00
2019-02-20T10:27:53.378Z,3940.00
2019-02-20T10:28:54.005Z,4188.00
2019-02-20T10:29:52.327Z,4448.00
2019-02-20T10:30:52.304Z,4668.00
2019-02-20T10:31:52.270Z,4872.00
2019-02-20T10:32:52.268Z,4560.00
2019-02-20T10:33:52.270Z,4144.00
2019-02-20T10:34:52.234Z,4176.00
2019-02-20T10:35:52.220Z,3812.00
2019-02-20T10:36:52.247Z,3960.00
2019-02-20T10:37:53.019Z,4008.00
2019-02-20T10:38:52.216Z,4288.00
2019-02-20T10:39:52.181Z,4496.00
2019-02-20T10:40:52.163Z,4360.00
2019-02-20T10:41:52.155Z,4212.00
2019-02-20T10:42:52.190Z,4180.00
2019-02-20T10:43:52.168Z,4292.00
2019-02-20T10:44:52.150Z,4388.00
2019-02-20T10:45:52.118Z,4388.00
2019-02-20T10:46:52.103Z,4236.00
2019-02-20T10:47:52.087Z,4436.00
2019-02-20T10:48:52.121Z,4208.00
2019-02-20T10:49:52.079Z,4180.00
2019-02-20T10:50:52.095Z,4192.00
2019-02-20T10:51:52.088Z,4432.00
2019-02-20T10:52:52.041Z,4288.00
2019-02-20T10:53:52.020Z,4140.00
2019-02-20T10:54:57.635Z,4040.00
2019-02-20T10:55:53.010Z,4024.00
2019-02-20T10:56:52.007Z,3992.00
2019-02-20T10:57:52.007Z,4008.00
2019-02-20T10:58:51.965Z,4100.00
2019-02-20T10:59:51.959Z,4236.00
2019-02-20T11:00:52.017Z,4452.00
2019-02-20T11:01:52.014Z,4544.00
2019-02-20T11:02:51.942Z,4392.00
2019-02-20T11:03:51.920Z,4196.00
2019-02-20T11:04:51.895Z,4064.00
2019-02-20T11:05:51.891Z,3864.00
2019-02-20T11:06:51.957Z,3876.00
2019-02-20T11:07:51.899Z,4008.00
2019-02-20T11:08:51.857Z,4048.00
2019-02-20T11:09:51.840Z,3940.00
2019-02-20T11:10:51.885Z,4124.00
2019-02-20T11:11:51.830Z,4376.00
2019-02-20T11:12:51.847Z,4492.00
2019-02-20T11:13:51.801Z,4972.00
2019-02-20T11:14:51.791Z,4904.00
2019-02-20T11:15:51.801Z,4900.00
2019-02-20T11:16:51.770Z,5020.00
2019-02-20T11:17:51.761Z,5080.00
2019-02-20T11:18:51.780Z,4952.00
2019-02-20T11:19:51.724Z,4768.00
2019-02-20T11:20:51.717Z,4552.00
2019-02-20T11:21:51.707Z,4888.00
2019-02-20T11:22:51.736Z,5112.00
2019-02-20T11:23:51.689Z,5216.00
2019-02-20T11:24:51.710Z,5348.00
2019-02-20T11:25:51.667Z,5396.00
2019-02-20T11:26:55.012Z,5008.00
2019-02-20T11:27:51.649Z,4500.00
2019-02-20T11:28:51.673Z,4304.00
2019-02-20T11:29:51.629Z,3864.00
2019-02-20T11:30:51.815Z,3664.00
2019-02-20T11:31:51.659Z,3904.00
2019-02-20T11:32:51.594Z,3780.00
2019-02-20T11:33:51.603Z,3820.00
2019-02-20T11:34:51.565Z,3764.00
2019-02-20T11:35:51.548Z,3520.00
2019-02-20T11:36:51.574Z,3556.00
2019-02-20T11:37:51.530Z,3624.00
2019-02-20T11:38:51.541Z,3520.00
2019-02-20T11:39:51.513Z,3468.00
2019-02-20T11:40:51.520Z,3496.00
2019-02-20T11:41:51.488Z,3560.00
2019-02-20T11:42:51.500Z,3540.00
2019-02-20T11:43:51.465Z,3580.00
2019-02-20T11:44:51.452Z,3708.00
2019-02-20T11:45:51.439Z,3812.00
2019-02-20T11:46:51.456Z,3928.00
2019-02-20T11:47:51.429Z,3784.00
2019-02-20T11:48:51.431Z,3320.00
2019-02-20T11:49:51.398Z,3124.00
2019-02-20T11:50:51.386Z,3064.00
2019-02-20T11:51:51.365Z,3084.00
2019-02-20T11:52:51.398Z,3052.00
2019-02-20T11:53:51.347Z,3084.00
2019-02-20T11:54:51.363Z,3580.00
2019-02-20T11:55:51.326Z,3984.00
2019-02-20T11:56:51.316Z,4308.00
2019-02-20T11:57:51.308Z,4328.00
2019-02-20T11:58:51.339Z,4024.00
2019-02-20T11:59:51.321Z,4240.00
2019-02-20T12:00:51.275Z,4156.00
2019-02-20T12:01:51.270Z,4148.00
2019-02-20T12:02:51.251Z,4164.00
2019-02-20T12:03:51.241Z,3752.00
2019-02-20T12:04:51.248Z,3280.00
2019-02-20T12:05:51.238Z,3288.00
2019-02-20T12:06:51.257Z,3356.00
2019-02-20T12:07:51.187Z,3884.00
2019-02-20T12:08:51.191Z,3540.00
2019-02-20T12:09:51.169Z,3640.00
2019-02-20T12:10:51.168Z,3520.00
2019-02-20T12:11:51.168Z,3404.00
2019-02-20T12:12:51.136Z,3256.00
2019-02-20T12:13:51.130Z,3204.00
2019-02-20T12:14:51.115Z,3224.00
2019-02-20T12:15:51.100Z,3716.00
2019-02-20T12:16:51.124Z,3408.00
2019-02-20T12:17:51.158Z,3024.00
2019-02-20T12:18:51.073Z,3048.00
2019-02-20T12:19:51.061Z,3020.00
2019-02-20T12:20:51.060Z,2836.00
2019-02-20T12:21:51.027Z,3080.00
2019-02-20T12:22:51.017Z,2908.00
2019-02-20T12:23:51.056Z,2948.00
2019-02-20T12:24:51.000Z,2884.00
2019-02-20T12:25:50.987Z,2728.00
2019-02-20T12:26:50.978Z,2640.00
2019-02-20T12:27:51.983Z,3264.00
2019-02-20T12:28:50.948Z,2548.00
2019-02-20T12:29:50.970Z,3000.00
2019-02-20T12:30:50.963Z,2476.00
2019-02-20T12:31:52.690Z,2488.00
2019-02-20T12:32:50.910Z,2552.00
2019-02-20T12:33:52.256Z,2704.00
2019-02-20T12:34:50.895Z,4584.00
2019-02-20T12:35:50.900Z,5056.00
2019-02-20T12:36:50.884Z,5268.00
2019-02-20T12:37:50.849Z,5376.00
2019-02-20T12:38:50.850Z,5448.00
2019-02-20T12:39:50.839Z,4808.00
2019-02-20T12:40:51.016Z,5672.00
2019-02-20T12:41:50.844Z,5760.00